No.10 Hasshomaru — JD2992 — position and weather

sailwx.info

Track history (hours):
 
Tides and Currents Weather Stations Pressure Air Temp Water Temp Dewpoint Dewpoint Depression Visibility Wind Speed Wind Dir Waves Ship Positions

No.10 Hasshomaru

Last reported at 2015-Apr-19 10:33 UTC. Time now 2015-Apr-19 11:00 UTC.
Position N 35°22' E 139°44'.

Length 105 m; draft 6.1 m.

Type: Tanker. MMSI: 431001112.

Date/timePositionNaut miles runAvg speedWind from/ knotsBaromVisibWave heightAir tempDewpointWater temp
2015-Apr-19 10:33N 35°22' E 139°44'0 0.0
2015-Apr-19 09:33N 35°22' E 139°44'0 0.1
2015-Apr-19 08:33N 35°22' E 139°44'0 0.1
2015-Apr-19 07:33N 35°22' E 139°44'6 5.7
2015-Apr-19 06:33N 35°17' E 139°45'1312.7
2015-Apr-19 05:33N 35°04' E 139°44'1714.3
2015-Apr-19 04:24N 34°54' E 139°28'4814.4
2015-Apr-19 01:04N 34°31' E 138°36'182 4.8
2015-Apr-17 11:33N 34°00' E 134°60'1514.6
2015-Apr-17 10:33N 34°15' E 134°59'1312.9
2015-Apr-17 09:31N 34°26' E 135°08'1414.8
2015-Apr-17 08:33N 34°33' E 135°23'1 0.1
2015-Apr-16 22:33N 34°32' E 135°24'5 4.4
2015-Apr-16 21:28N 34°32' E 135°18'0 0.1
2015-Apr-16 20:28N 34°32' E 135°18'0 0.0
2015-Apr-16 19:28N 34°32' E 135°18'2 2.0
2015-Apr-16 18:33N 34°31' E 135°16'1313.6
2015-Apr-16 17:33N 34°22' E 135°04'1211.7
2015-Apr-16 16:33N 34°11' E 134°59'249 9.8
2015-Apr-15 15:15N 34°52' E 139°58'710.4
2015-Apr-15 14:33N 34°55' E 140°05'1110.1
2015-Apr-15 13:27N 35°01' E 140°17'1110.1
2015-Apr-15 12:20N 35°08' E 140°27'2111.1
2015-Apr-15 10:24N 35°26' E 140°42'1411.1
2015-Apr-15 09:09N 35°37' E 140°53'20 7.8
2015-Apr-15 06:33N 35°55' E 140°41'0 0.1
2015-Apr-14 23:25N 35°55' E 140°41'5 6.2
2015-Apr-14 22:33N 35°60' E 140°44'0 0.0
2015-Apr-14 21:08N 35°60' E 140°44'3 4.0
2015-Apr-14 20:26N 36°02' E 140°45'1614.1
2015-Apr-14 19:19N 36°18' E 140°50'  
Track history (hours):
 
Tides and Currents Weather Stations Pressure Air Temp Water Temp Dewpoint Dewpoint Depression Visibility Wind Speed Wind Dir Waves Ship Positions

No.10 Hasshomaru

Last reported at 2015-Apr-19 10:33 UTC. Time now 2015-Apr-19 11:00 UTC.
Position N 35°22' E 139°44'.

Length 105 m; draft 6.1 m.

Type: Tanker. MMSI: 431001112.

Date/timePositionNaut miles runAvg speedWind from/ knotsBaromVisibWave heightAir tempDewpointWater temp
2015-Apr-19 10:33N 35°22' E 139°44'0 0.0
2015-Apr-19 09:33N 35°22' E 139°44'0 0.1
2015-Apr-19 08:33N 35°22' E 139°44'0 0.1
2015-Apr-19 07:33N 35°22' E 139°44'6 5.7
2015-Apr-19 06:33N 35°17' E 139°45'1312.7
2015-Apr-19 05:33N 35°04' E 139°44'1714.3
2015-Apr-19 04:24N 34°54' E 139°28'4814.4
2015-Apr-19 01:04N 34°31' E 138°36'182 4.8
2015-Apr-17 11:33N 34°00' E 134°60'1514.6
2015-Apr-17 10:33N 34°15' E 134°59'1312.9
2015-Apr-17 09:31N 34°26' E 135°08'1414.8
2015-Apr-17 08:33N 34°33' E 135°23'1 0.1
2015-Apr-16 22:33N 34°32' E 135°24'5 4.4
2015-Apr-16 21:28N 34°32' E 135°18'0 0.1
2015-Apr-16 20:28N 34°32' E 135°18'0 0.0
2015-Apr-16 19:28N 34°32' E 135°18'2 2.0
2015-Apr-16 18:33N 34°31' E 135°16'1313.6
2015-Apr-16 17:33N 34°22' E 135°04'1211.7
2015-Apr-16 16:33N 34°11' E 134°59'249 9.8
2015-Apr-15 15:15N 34°52' E 139°58'710.4
2015-Apr-15 14:33N 34°55' E 140°05'1110.1
2015-Apr-15 13:27N 35°01' E 140°17'1110.1
2015-Apr-15 12:20N 35°08' E 140°27'2111.1
2015-Apr-15 10:24N 35°26' E 140°42'1411.1
2015-Apr-15 09:09N 35°37' E 140°53'20 7.8
2015-Apr-15 06:33N 35°55' E 140°41'0 0.1
2015-Apr-14 23:25N 35°55' E 140°41'5 6.2
2015-Apr-14 22:33N 35°60' E 140°44'0 0.0
2015-Apr-14 21:08N 35°60' E 140°44'3 4.0
2015-Apr-14 20:26N 36°02' E 140°45'1614.1
2015-Apr-14 19:19N 36°18' E 140°50'  

Dump ship's entire track history